Time;durP1;ratioP1;P1;durP2;ratioP2;P2;SDS_P1;SDS_P2;PMS_P1;PMS_P2;Temp;Humidity;BMP_temperature;BMP_pressure;BME280_temperature;BME280_humidity;BME280_pressure;Samples;Min_cycle;Max_cycle;Signal;HPM_P1;HPM_P2
2022/03/29 00:00:16;;;;;;;115.55;70.10;;;8.70;87.60;;;;;;5009280;28;20021;-76
2022/03/29 00:02:43;;;;;;;114.60;69.97;;;8.70;87.80;;;;;;5002364;28;20030;-76
2022/03/29 00:05:09;;;;;;;112.22;69.13;;;8.80;87.80;;;;;;4991845;28;20039;-76
2022/03/29 00:07:35;;;;;;;115.75;70.65;;;8.80;87.70;;;;;;4980188;28;20034;-77
2022/03/29 00:10:05;;;;;;;108.85;65.60;;;8.80;87.90;;;;;;4998302;28;20457;-76
2022/03/29 00:12:35;;;;;;;115.45;67.45;;;8.90;87.90;;;;;;4986913;28;20046;-75
2022/03/29 00:15:02;;;;;;;114.68;67.85;;;8.70;87.70;;;;;;4983536;28;20048;-77
2022/03/29 00:17:28;;;;;;;120.25;69.28;;;8.70;88.00;;;;;;4979285;28;20129;-76
2022/03/29 00:19:54;;;;;;;116.05;67.80;;;8.70;88.10;;;;;;4988040;28;20032;-76
2022/03/29 00:22:19;;;;;;;109.57;67.15;;;8.80;88.00;;;;;;4994185;28;20120;-77
2022/03/29 00:24:45;;;;;;;111.57;71.28;;;8.80;87.90;;;;;;4993744;28;20289;-76
2022/03/29 00:27:11;;;;;;;115.60;68.70;;;8.80;88.00;;;;;;4996910;28;20038;-76
2022/03/29 00:29:37;;;;;;;117.93;68.75;;;8.80;88.00;;;;;;5000425;28;20037;-76
2022/03/29 00:32:04;;;;;;;112.53;69.00;;;8.80;87.90;;;;;;4993567;28;20050;-77
2022/03/29 00:34:29;;;;;;;119.18;70.68;;;8.70;87.80;;;;;;4988300;28;20149;-76
2022/03/29 00:36:55;;;;;;;112.22;69.47;;;8.70;88.10;;;;;;4997523;28;20080;-76
2022/03/29 00:39:21;;;;;;;115.43;67.90;;;8.70;88.20;;;;;;5005840;28;20095;-76
2022/03/29 00:41:46;;;;;;;112.53;69.05;;;8.80;88.10;;;;;;4994354;28;20081;-77
2022/03/29 00:44:15;;;;;;;104.43;66.22;;;8.80;88.00;;;;;;4997575;28;20112;-76
2022/03/29 00:46:41;;;;;;;112.45;68.30;;;8.70;87.80;;;;;;4997300;28;20181;-76
2022/03/29 00:49:07;;;;;;;112.30;69.68;;;8.70;88.20;;;;;;4995559;28;20125;-76
2022/03/29 00:51:33;;;;;;;107.90;67.43;;;8.80;88.20;;;;;;4991595;28;20038;-76
2022/03/29 00:53:59;;;;;;;103.47;65.88;;;8.90;88.20;;;;;;4977739;28;20996;-76
2022/03/29 00:56:25;;;;;;;106.60;67.95;;;8.90;88.10;;;;;;4993078;28;20738;-75
2022/03/29 00:58:51;;;;;;;104.35;66.93;;;8.90;87.90;;;;;;4993901;28;20033;-76
2022/03/29 01:01:16;;;;;;;109.25;67.03;;;8.90;87.70;;;;;;4977432;28;20129;-76
2022/03/29 01:03:42;;;;;;;104.68;66.22;;;8.80;87.60;;;;;;4987802;28;20034;-76
2022/03/29 01:06:10;;;;;;;107.30;68.53;;;8.80;87.70;;;;;;4984249;28;20355;-76
2022/03/29 01:08:36;;;;;;;112.40;69.32;;;8.70;88.00;;;;;;4987225;28;20517;-77
2022/03/29 01:11:06;;;;;;;118.13;70.38;;;8.60;88.50;;;;;;4994923;28;20030;-76
2022/03/29 01:13:32;;;;;;;112.82;71.28;;;8.60;88.50;;;;;;4990110;28;20038;-76
2022/03/29 01:17:38;;;;;;;108.43;70.93;;;8.70;88.70;;;;;;4992331;28;20401;-77
2022/03/29 01:18:47;;;;;;;111.05;70.13;;;8.70;88.50;;;;;;4986843;28;20029;-76
2022/03/29 01:21:20;;;;;;;117.38;72.78;;;8.60;88.50;;;;;;4989320;28;20049;-76
2022/03/29 01:23:48;;;;;;;106.30;68.82;;;8.60;88.60;;;;;;4986897;28;20474;-75
2022/03/29 01:26:18;;;;;;;114.47;70.60;;;8.60;88.60;;;;;;5006319;28;20061;-76
2022/03/29 01:28:44;;;;;;;103.32;66.47;;;8.70;88.60;;;;;;4991643;28;20034;-76
2022/03/29 01:31:12;;;;;;;106.18;67.10;;;8.70;88.60;;;;;;4996146;28;20030;-76
2022/03/29 01:33:39;;;;;;;101.10;64.57;;;8.70;88.60;;;;;;4990398;28;20034;-76
2022/03/29 01:36:05;;;;;;;101.20;65.43;;;8.80;88.60;;;;;;4998776;28;20117;-77
2022/03/29 01:38:30;;;;;;;104.90;66.68;;;8.80;88.40;;;;;;4993863;28;20034;-76
2022/03/29 01:41:01;;;;;;;106.95;68.10;;;8.70;88.10;;;;;;4997087;28;20492;-76
2022/03/29 01:43:27;;;;;;;104.60;69.03;;;8.70;88.10;;;;;;4988358;28;20482;-76
2022/03/29 01:45:52;;;;;;;102.78;64.43;;;8.70;88.20;;;;;;5000552;28;20125;-75
2022/03/29 01:48:18;;;;;;;108.75;66.90;;;8.70;88.30;;;;;;4991786;28;20034;-76
2022/03/29 01:50:45;;;;;;;105.50;67.03;;;8.60;88.50;;;;;;4982574;28;20034;-75
2022/03/29 01:53:24;;;;;;;113.20;73.53;;;8.60;88.60;;;;;;4996822;28;20041;-76
2022/03/29 01:55:57;;;;;;;105.80;66.50;;;8.50;88.80;;;;;;4996573;28;20065;-76
2022/03/29 01:58:24;;;;;;;112.03;72.10;;;8.50;88.90;;;;;;4993057;28;20111;-75
2022/03/29 02:00:50;;;;;;;118.20;72.30;;;8.50;88.90;;;;;;4979801;28;20160;-76
2022/03/29 02:03:16;;;;;;;118.32;71.38;;;8.50;88.90;;;;;;4989479;28;20508;-75
2022/03/29 02:05:41;;;;;;;113.60;72.60;;;8.40;88.90;;;;;;4981965;28;20035;-76
2022/03/29 02:08:07;;;;;;;116.95;71.32;;;8.50;89.20;;;;;;4989846;28;20037;-75
2022/03/29 02:10:33;;;;;;;109.88;69.95;;;8.50;89.10;;;;;;4980886;28;20034;-76
2022/03/29 02:12:59;;;;;;;108.72;71.35;;;8.50;89.00;;;;;;4972404;28;20046;-76
2022/03/29 02:15:25;;;;;;;115.03;71.93;;;8.50;89.00;;;;;;4996650;28;20056;-76
2022/03/29 02:17:52;;;;;;;110.72;68.53;;;8.50;89.00;;;;;;4992547;28;20030;-77
2022/03/29 02:20:19;;;;;;;106.75;69.53;;;8.50;88.90;;;;;;4990145;28;20529;-75
2022/03/29 02:22:45;;;;;;;109.38;73.05;;;8.50;89.00;;;;;;4985448;28;20034;-75
2022/03/29 02:25:12;;;;;;;103.10;67.65;;;8.50;89.00;;;;;;4993506;28;20042;-78
2022/03/29 02:27:44;;;;;;;107.50;67.72;;;8.50;89.00;;;;;;4983245;28;20117;-77
2022/03/29 02:30:12;;;;;;;109.07;70.85;;;8.60;89.00;;;;;;4996994;28;20018;-75
2022/03/29 02:32:38;;;;;;;102.03;67.55;;;8.60;88.90;;;;;;4992383;28;20130;-76
2022/03/29 02:35:05;;;;;;;102.78;68.03;;;8.60;88.80;;;;;;4996640;28;20045;-74
2022/03/29 02:37:31;;;;;;;106.38;70.07;;;8.60;88.80;;;;;;4997319;28;20057;-75
2022/03/29 02:39:56;;;;;;;103.53;68.95;;;8.60;88.60;;;;;;5004214;28;20595;-75
2022/03/29 02:42:22;;;;;;;104.25;69.18;;;8.60;88.50;;;;;;4993973;28;20084;-75
2022/03/29 02:44:48;;;;;;;98.53;65.82;;;8.60;88.60;;;;;;4992553;28;20149;-76
2022/03/29 02:47:13;;;;;;;105.97;68.82;;;8.60;88.60;;;;;;5011194;28;20041;-76
2022/03/29 02:49:39;;;;;;;107.25;70.88;;;8.60;88.50;;;;;;4997629;28;20099;-76
2022/03/29 02:52:05;;;;;;;110.10;72.25;;;8.50;88.70;;;;;;4973600;28;20050;-76
2022/03/29 02:54:31;;;;;;;103.25;66.68;;;8.60;88.70;;;;;;4990248;28;20469;-75
2022/03/29 02:56:56;;;;;;;95.88;63.60;;;8.60;88.60;;;;;;4988825;28;20030;-77
2022/03/29 02:59:22;;;;;;;98.10;66.32;;;8.60;88.60;;;;;;4993264;28;20034;-75
2022/03/29 03:01:48;;;;;;;101.03;68.10;;;8.60;88.40;;;;;;4991010;28;20041;-76
2022/03/29 03:04:14;;;;;;;92.13;65.05;;;8.60;88.20;;;;;;5006533;28;20042;-75
2022/03/29 03:06:40;;;;;;;97.18;65.60;;;8.60;88.30;;;;;;4990006;28;20078;-77
2022/03/29 03:09:07;;;;;;;101.72;67.13;;;8.60;88.30;;;;;;4988351;28;20056;-76
2022/03/29 03:11:32;;;;;;;96.78;65.05;;;8.60;88.40;;;;;;4978181;28;20153;-76
2022/03/29 03:13:58;;;;;;;96.55;65.72;;;8.60;88.20;;;;;;4990637;28;20577;-76
2022/03/29 03:16:24;;;;;;;99.07;68.28;;;8.60;88.10;;;;;;5001319;28;20084;-76
2022/03/29 03:18:51;;;;;;;100.65;67.18;;;8.50;88.10;;;;;;4987115;28;20101;-76
2022/03/29 03:21:17;;;;;;;92.30;65.15;;;8.50;88.30;;;;;;4997775;28;20125;-76
2022/03/29 03:23:43;;;;;;;103.65;71.40;;;8.40;88.30;;;;;;4989696;28;20035;-76
2022/03/29 03:26:08;;;;;;;98.95;67.30;;;8.40;88.40;;;;;;4986254;28;20035;-76
2022/03/29 03:28:34;;;;;;;99.68;65.28;;;8.50;88.50;;;;;;4985646;28;20033;-76
2022/03/29 03:31:00;;;;;;;96.40;65.70;;;8.50;88.40;;;;;;5008743;28;20037;-76
2022/03/29 03:33:26;;;;;;;97.22;65.32;;;8.40;88.30;;;;;;4976067;28;20442;-76
2022/03/29 03:35:52;;;;;;;105.07;68.85;;;8.30;88.40;;;;;;5002025;28;20403;-76
2022/03/29 03:38:17;;;;;;;107.97;68.72;;;8.30;88.80;;;;;;4993733;28;20034;-76
2022/03/29 03:40:43;;;;;;;98.03;65.95;;;8.30;88.90;;;;;;4981093;28;20275;-76
2022/03/29 03:43:08;;;;;;;102.65;68.78;;;8.30;88.90;;;;;;5002201;28;20239;-77
2022/03/29 03:45:35;;;;;;;97.03;64.03;;;8.40;88.90;;;;;;4992337;28;20108;-76
2022/03/29 03:48:02;;;;;;;97.57;65.93;;;8.40;88.90;;;;;;4985558;28;20030;-75
2022/03/29 03:50:28;;;;;;;100.22;64.45;;;8.40;88.90;;;;;;4993014;28;20038;-75
2022/03/29 03:52:54;;;;;;;96.03;65.25;;;8.50;88.70;;;;;;5000836;28;20083;-77
2022/03/29 03:55:21;;;;;;;97.20;64.15;;;8.40;88.60;;;;;;4986286;28;20069;-76
2022/03/29 03:57:47;;;;;;;90.97;61.97;;;8.30;88.70;;;;;;5006395;28;20034;-76
2022/03/29 04:00:12;;;;;;;94.18;60.65;;;8.40;88.80;;;;;;4994541;28;20026;-75
2022/03/29 04:02:39;;;;;;;94.15;60.25;;;8.40;88.90;;;;;;4992593;28;20037;-75
2022/03/29 04:05:08;;;;;;;100.28;63.15;;;8.50;88.80;;;;;;5004173;28;20025;-77
2022/03/29 04:07:34;;;;;;;101.75;61.97;;;8.50;88.70;;;;;;4989533;28;20758;-75
2022/03/29 04:10:00;;;;;;;90.47;60.28;;;8.50;88.60;;;;;;4991606;28;20108;-75
2022/03/29 04:12:27;;;;;;;96.15;61.38;;;8.50;88.70;;;;;;4976997;28;20533;-75
2022/03/29 04:14:53;;;;;;;94.07;60.28;;;8.40;88.60;;;;;;4989589;28;20031;-75
2022/03/29 04:17:19;;;;;;;94.93;63.00;;;8.50;88.70;;;;;;4993255;28;20044;-75
2022/03/29 04:19:45;;;;;;;94.97;60.30;;;8.40;88.70;;;;;;4990718;28;20039;-77
2022/03/29 04:22:11;;;;;;;91.82;61.47;;;8.40;88.80;;;;;;4991454;28;20050;-76
2022/03/29 04:24:37;;;;;;;89.65;59.10;;;8.40;88.90;;;;;;4992560;28;20282;-78
2022/03/29 04:27:03;;;;;;;92.40;60.50;;;8.50;89.00;;;;;;4989132;28;20034;-77
2022/03/29 04:29:29;;;;;;;95.97;60.58;;;8.50;89.00;;;;;;4988620;28;20029;-77
2022/03/29 04:31:55;;;;;;;96.43;62.03;;;8.50;89.00;;;;;;4996276;28;20065;-76
2022/03/29 04:34:20;;;;;;;91.80;60.22;;;8.60;89.00;;;;;;4990090;28;20064;-75
2022/03/29 04:36:46;;;;;;;90.90;61.47;;;8.50;88.90;;;;;;4997520;28;20037;-76
2022/03/29 04:39:12;;;;;;;89.68;60.05;;;8.60;88.70;;;;;;4991994;28;20065;-75
2022/03/29 04:41:39;;;;;;;93.47;61.55;;;8.50;88.50;;;;;;4990417;28;20041;-76
2022/03/29 04:44:05;;;;;;;87.90;62.22;;;8.50;88.40;;;;;;4973024;28;20042;-75
2022/03/29 04:46:30;;;;;;;92.80;63.33;;;8.50;88.50;;;;;;4986757;28;20535;-75
2022/03/29 04:48:56;;;;;;;88.32;61.30;;;8.50;88.50;;;;;;4984405;28;20430;-75
2022/03/29 04:51:22;;;;;;;90.88;61.72;;;8.40;88.50;;;;;;4984506;28;20570;-75
2022/03/29 04:53:47;;;;;;;91.00;62.28;;;8.50;88.50;;;;;;4985186;28;20085;-75
2022/03/29 04:56:13;;;;;;;89.80;60.53;;;8.50;88.50;;;;;;4986869;28;20385;-76
2022/03/29 04:58:39;;;;;;;90.28;60.83;;;8.50;88.50;;;;;;4988140;28;20044;-75
2022/03/29 05:01:05;;;;;;;96.75;73.57;;;8.50;88.50;;;;;;4986680;28;20039;-76
2022/03/29 05:03:32;;;;;;;98.22;65.70;;;8.50;88.50;;;;;;4991266;28;20057;-76
2022/03/29 05:05:57;;;;;;;91.80;61.97;;;8.40;88.40;;;;;;4991054;28;20263;-77
2022/03/29 05:08:23;;;;;;;93.88;63.53;;;8.40;88.50;;;;;;4993834;28;20037;-76
2022/03/29 05:10:49;;;;;;;95.25;61.33;;;8.50;88.70;;;;;;4993255;28;20072;-78
2022/03/29 05:13:16;;;;;;;87.30;59.53;;;8.40;88.60;;;;;;4989002;28;20031;-77
2022/03/29 05:15:41;;;;;;;90.65;61.60;;;8.50;88.70;;;;;;4971543;28;20472;-77
2022/03/29 05:18:07;;;;;;;92.07;60.55;;;8.40;88.60;;;;;;4976629;28;20041;-76
2022/03/29 05:20:33;;;;;;;88.45;59.38;;;8.50;88.70;;;;;;4994447;28;20060;-76
2022/03/29 05:23:00;;;;;;;97.63;61.92;;;8.40;88.60;;;;;;4995176;28;20087;-77
2022/03/29 05:25:26;;;;;;;90.18;61.55;;;8.50;88.50;;;;;;4992931;28;20038;-76
2022/03/29 05:27:53;;;;;;;94.10;60.70;;;8.40;88.50;;;;;;4993301;28;20358;-76
2022/03/29 05:30:20;;;;;;;92.97;61.83;;;8.40;88.60;;;;;;4991475;28;20034;-75
2022/03/29 05:32:47;;;;;;;92.22;60.97;;;8.40;88.80;;;;;;4992452;28;20053;-76
2022/03/29 05:35:14;;;;;;;85.50;56.72;;;8.40;88.70;;;;;;4992230;28;20268;-81
2022/03/29 05:37:41;;;;;;;86.47;59.22;;;8.40;88.80;;;;;;4986926;28;20047;-77
2022/03/29 05:40:08;;;;;;;88.30;59.50;;;8.40;88.80;;;;;;4982180;28;20041;-79
2022/03/29 05:42:42;;;;;;;86.45;56.45;;;8.50;88.80;;;;;;4986995;28;20300;-77
2022/03/29 05:45:10;;;;;;;85.87;59.63;;;8.40;88.80;;;;;;4976718;28;20030;-77
2022/03/29 05:50:20;;;;;;;93.30;59.13;;;8.40;89.00;;;;;;4985532;28;20041;-79
2022/03/29 05:52:46;;;;;;;90.57;58.38;;;8.40;89.00;;;;;;4997300;28;20400;-79
2022/03/29 05:55:12;;;;;;;87.50;57.90;;;8.40;89.10;;;;;;4980145;28;20469;-74
2022/03/29 05:57:38;;;;;;;88.72;56.33;;;8.40;89.00;;;;;;4990802;28;20042;-74
2022/03/29 06:00:08;;;;;;;89.25;56.72;;;8.50;89.00;;;;;;4983593;28;20027;-75
2022/03/29 06:02:34;;;;;;;91.05;57.95;;;8.50;88.90;;;;;;5000446;28;20042;-76
2022/03/29 06:05:00;;;;;;;90.88;58.50;;;8.50;88.80;;;;;;4994945;28;20072;-76
2022/03/29 06:07:27;;;;;;;91.00;58.90;;;8.50;88.70;;;;;;4989805;28;20034;-76
2022/03/29 06:09:53;;;;;;;91.05;56.05;;;8.40;88.90;;;;;;4993290;28;20423;-76
2022/03/29 06:12:22;;;;;;;85.53;55.90;;;8.50;88.90;;;;;;4989002;28;20207;-74
2022/03/29 06:14:49;;;;;;;90.47;56.17;;;8.50;88.80;;;;;;5007351;28;20626;-76
2022/03/29 06:17:16;;;;;;;89.75;56.05;;;8.50;88.80;;;;;;4992520;28;20065;-79
2022/03/29 06:19:43;;;;;;;86.32;56.08;;;8.50;89.00;;;;;;5005866;28;20065;-80
2022/03/29 06:22:09;;;;;;;88.68;55.22;;;8.60;88.90;;;;;;5002838;28;20488;-79
2022/03/29 06:24:35;;;;;;;87.03;54.33;;;8.60;88.60;;;;;;5008248;28;20042;-76
2022/03/29 06:27:00;;;;;;;91.80;56.13;;;8.60;88.70;;;;;;5008225;28;20042;-75
2022/03/29 06:29:26;;;;;;;90.82;56.38;;;8.60;88.60;;;;;;5010882;28;20060;-79
2022/03/29 06:31:51;;;;;;;90.30;56.00;;;8.60;88.60;;;;;;5011704;28;20049;-77
2022/03/29 06:34:17;;;;;;;84.03;53.40;;;8.60;88.90;;;;;;5000223;28;20045;-80
2022/03/29 06:36:43;;;;;;;89.15;55.45;;;8.60;88.90;;;;;;5024098;28;20517;-75
2022/03/29 06:39:11;;;;;;;83.32;52.30;;;8.80;89.00;;;;;;4989198;28;20034;-78
2022/03/29 06:41:38;;;;;;;87.40;53.00;;;8.90;88.90;;;;;;4990744;28;20452;-77
2022/03/29 06:44:05;;;;;;;81.07;51.13;;;9.00;88.70;;;;;;5008325;28;20088;-77
2022/03/29 06:46:31;;;;;;;83.97;53.20;;;9.10;88.50;;;;;;4992051;28;20072;-78
2022/03/29 06:48:57;;;;;;;82.88;52.13;;;9.20;88.00;;;;;;5005123;28;20441;-75
2022/03/29 06:51:23;;;;;;;77.95;51.17;;;9.20;88.00;;;;;;4991101;28;20553;-76
2022/03/29 06:53:49;;;;;;;79.13;50.78;;;9.30;87.70;;;;;;5007952;28;20132;-79
2022/03/29 06:56:16;;;;;;;78.85;50.63;;;9.40;87.60;;;;;;4992445;28;20053;-76
2022/03/29 06:58:42;;;;;;;73.40;48.10;;;9.60;87.60;;;;;;4994186;28;20410;-75
2022/03/29 07:01:08;;;;;;;73.57;49.13;;;9.70;87.50;;;;;;4997358;28;20509;-76
2022/03/29 07:03:35;;;;;;;77.95;48.08;;;9.80;87.10;;;;;;4985197;28;20512;-78
2022/03/29 07:06:03;;;;;;;69.25;46.83;;;9.90;86.60;;;;;;4988003;28;20446;-80
2022/03/29 07:08:30;;;;;;;71.03;47.30;;;10.10;86.50;;;;;;4998201;28;20029;-78
2022/03/29 07:13:40;;;;;;;;;;;10.10;85.40;;;;;;4997875;28;20409;-77
2022/03/29 07:16:07;;;;;;;68.22;44.67;;;10.30;85.10;;;;;;4992682;28;19913;-76
2022/03/29 07:18:33;;;;;;;62.67;43.58;;;10.40;84.80;;;;;;4975679;28;20344;-75
2022/03/29 07:20:59;;;;;;;69.40;45.45;;;10.50;84.60;;;;;;4982639;28;20046;-75
2022/03/29 07:23:25;;;;;;;64.45;44.38;;;10.50;83.40;;;;;;4986957;28;20478;-79
2022/03/29 07:25:51;;;;;;;66.35;42.20;;;10.60;83.90;;;;;;4988812;28;20314;-76
2022/03/29 07:28:16;;;;;;;63.67;43.50;;;10.60;83.90;;;;;;5004423;28;20318;-75
2022/03/29 07:30:43;;;;;;;59.85;41.10;;;10.70;83.60;;;;;;5014830;28;20026;-75
2022/03/29 07:33:10;;;;;;;61.33;41.00;;;10.90;83.30;;;;;;5000792;28;20145;-77
2022/03/29 07:35:36;;;;;;;62.55;40.45;;;11.00;82.90;;;;;;4983980;28;20401;-75
2022/03/29 07:38:03;;;;;;;60.67;39.55;;;11.10;82.20;;;;;;4997125;28;20030;-74
2022/03/29 07:40:30;;;;;;;62.30;35.97;;;11.10;81.40;;;;;;4997761;28;20138;-74
2022/03/29 07:42:58;;;;;;;59.95;37.70;;;11.10;81.00;;;;;;4991957;28;20042;-74
2022/03/29 07:45:24;;;;;;;56.70;36.75;;;11.00;80.50;;;;;;4990724;28;20473;-74
2022/03/29 07:47:52;;;;;;;56.78;36.75;;;11.10;80.80;;;;;;5000446;28;20498;-74
2022/03/29 07:50:18;;;;;;;61.03;39.08;;;11.10;80.30;;;;;;4990089;28;20037;-75
2022/03/29 07:52:44;;;;;;;59.30;37.97;;;11.20;80.20;;;;;;4990231;28;20089;-74
2022/03/29 07:55:11;;;;;;;56.72;37.65;;;11.40;80.20;;;;;;4990884;28;20493;-75
2022/03/29 07:57:39;;;;;;;57.55;37.45;;;11.60;79.40;;;;;;4999728;28;20603;-75
2022/03/29 08:02:52;;;;;;;59.95;37.60;;;12.00;77.60;;;;;;4993738;28;20045;-74
2022/03/29 08:05:18;;;;;;;54.38;34.08;;;12.10;77.50;;;;;;4996438;28;20060;-75
2022/03/29 08:07:44;;;;;;;54.72;34.45;;;12.30;76.80;;;;;;4996775;28;20045;-73
2022/03/29 08:10:10;;;;;;;58.35;36.70;;;12.30;76.50;;;;;;4998009;28;20033;-75
2022/03/29 08:12:36;;;;;;;56.90;38.03;;;12.30;75.80;;;;;;4981000;28;20041;-74
2022/03/29 08:15:02;;;;;;;54.42;37.15;;;12.20;76.70;;;;;;4980263;28;20335;-74
2022/03/29 08:17:27;;;;;;;52.42;34.63;;;12.40;76.90;;;;;;4994671;28;20121;-73
2022/03/29 08:19:53;;;;;;;57.20;35.67;;;12.60;75.70;;;;;;4990904;28;20116;-74
2022/03/29 08:22:19;;;;;;;58.38;35.92;;;12.60;74.60;;;;;;4980085;28;20034;-73
2022/03/29 08:24:45;;;;;;;53.03;36.45;;;12.60;75.10;;;;;;4994070;28;20275;-74
2022/03/29 08:27:10;;;;;;;55.35;35.78;;;12.60;75.10;;;;;;4994589;28;20042;-74
2022/03/29 08:29:37;;;;;;;50.20;35.83;;;12.80;75.10;;;;;;4992882;28;20047;-74
2022/03/29 08:32:03;;;;;;;57.63;35.63;;;13.00;74.70;;;;;;4997997;28;20038;-75
2022/03/29 08:34:28;;;;;;;51.35;33.15;;;13.00;73.70;;;;;;4968785;28;20052;-75
2022/03/29 08:36:54;;;;;;;52.15;34.15;;;13.00;74.20;;;;;;4988989;28;20494;-74
2022/03/29 08:39:19;;;;;;;51.75;34.58;;;13.10;73.70;;;;;;4991992;28;20042;-73
2022/03/29 08:41:58;;;;;;;53.65;36.10;;;13.10;72.50;;;;;;4996405;28;20054;-77
2022/03/29 08:44:26;;;;;;;58.47;34.55;;;13.00;73.30;;;;;;4998081;28;20045;-75
2022/03/29 08:46:52;;;;;;;49.95;33.47;;;13.00;73.70;;;;;;5000653;28;20311;-73
2022/03/29 08:49:19;;;;;;;53.75;35.25;;;12.90;73.80;;;;;;4986205;28;20375;-73
2022/03/29 08:51:46;;;;;;;56.58;34.63;;;12.80;74.40;;;;;;4995655;28;20056;-76
2022/03/29 08:54:12;;;;;;;50.17;33.85;;;12.90;74.90;;;;;;4998565;28;20109;-74
2022/03/29 08:56:40;;;;;;;55.35;34.25;;;12.90;73.50;;;;;;4986232;28;20050;-74
2022/03/29 08:59:05;;;;;;;54.08;33.97;;;13.10;73.80;;;;;;4995141;28;20044;-75
2022/03/29 09:01:31;;;;;;;52.30;33.15;;;13.00;73.10;;;;;;5004328;28;20461;-75
2022/03/29 09:04:03;;;;;;;59.30;35.72;;;13.10;73.80;;;;;;4989281;28;20045;-74
2022/03/29 09:06:29;;;;;;;51.05;33.50;;;13.40;72.20;;;;;;4999114;28;20066;-75
2022/03/29 09:08:55;;;;;;;46.05;32.78;;;13.50;72.10;;;;;;4977665;28;21032;-75
2022/03/29 09:11:21;;;;;;;51.67;32.20;;;13.80;71.40;;;;;;5002247;28;20046;-74
2022/03/29 09:14:00;;;;;;;51.30;33.28;;;13.80;70.20;;;;;;4989931;28;20474;-74
2022/03/29 09:16:31;;;;;;;53.75;32.25;;;14.00;70.80;;;;;;4997182;28;20518;-74
2022/03/29 09:18:58;;;;;;;52.25;33.05;;;14.30;69.70;;;;;;4992966;28;20038;-74
2022/03/29 09:21:24;;;;;;;56.28;33.20;;;14.50;67.50;;;;;;4996947;28;20150;-74
2022/03/29 09:24:11;;;;;;;46.80;30.95;;;14.40;68.80;;;;;;4996285;28;20406;-74
2022/03/29 09:26:41;;;;;;;44.85;30.88;;;14.70;69.00;;;;;;4995634;28;20049;-76
2022/03/29 09:29:14;;;;;;;47.95;32.28;;;15.10;67.60;;;;;;4991909;28;20035;-75
2022/03/29 09:31:41;;;;;;;48.22;32.03;;;15.50;65.60;;;;;;4992790;28;20470;-76
2022/03/29 09:34:12;;;;;;;44.60;30.92;;;15.70;64.70;;;;;;4992025;28;20702;-74
2022/03/29 09:36:43;;;;;;;45.47;32.05;;;15.80;63.50;;;;;;4997899;28;20069;-75
2022/03/29 09:39:09;;;;;;;47.10;31.88;;;15.80;64.50;;;;;;4998574;28;20038;-74
2022/03/29 09:41:36;;;;;;;49.78;34.22;;;15.70;64.10;;;;;;4986005;28;20680;-73
2022/03/29 09:44:06;;;;;;;49.40;33.47;;;15.70;65.30;;;;;;4996127;28;20050;-73
2022/03/29 09:47:02;;;;;;;49.83;31.98;;;15.80;63.20;;;;;;5006570;28;20045;-74
2022/03/29 09:49:28;;;;;;;50.63;32.03;;;15.90;63.30;;;;;;4995574;28;20038;-75
2022/03/29 09:52:14;;;;;;;47.13;33.50;;;16.10;63.20;;;;;;5001924;28;20160;-74
2022/03/29 09:54:40;;;;;;;60.42;38.70;;;16.00;63.40;;;;;;4998350;28;20045;-75
2022/03/29 09:57:06;;;;;;;60.33;38.92;;;15.60;62.00;;;;;;5000061;28;20049;-73
2022/03/29 09:59:32;;;;;;;54.97;35.00;;;15.60;62.50;;;;;;5005990;28;20033;-74
2022/03/29 10:01:58;;;;;;;49.60;34.67;;;16.00;62.30;;;;;;4994256;28;20034;-73
2022/03/29 10:04:30;;;;;;;55.90;37.42;;;16.10;62.10;;;;;;4997490;28;20045;-74
2022/03/29 10:06:58;;;;;;;59.00;39.10;;;16.20;60.50;;;;;;4998423;28;20141;-74
2022/03/29 10:09:35;;;;;;;51.78;37.65;;;16.20;60.50;;;;;;4996271;28;20065;-75
2022/03/29 10:12:09;;;;;;;57.25;39.63;;;16.30;60.60;;;;;;4997836;28;20521;-75
2022/03/29 10:14:37;;;;;;;55.22;39.35;;;16.30;59.80;;;;;;4987087;28;20034;-75
2022/03/29 10:17:04;;;;;;;58.03;39.30;;;16.50;60.50;;;;;;4985981;28;20046;-74
2022/03/29 10:19:33;;;;;;;55.05;40.50;;;16.70;58.90;;;;;;5004985;28;20034;-74
2022/03/29 10:22:00;;;;;;;53.60;40.22;;;17.00;57.80;;;;;;4998242;28;20050;-74
2022/03/29 10:24:28;;;;;;;56.42;40.90;;;17.00;57.70;;;;;;4991842;28;20037;-76
2022/03/29 10:26:56;;;;;;;55.70;41.13;;;16.80;56.70;;;;;;4964682;28;20034;-74
2022/03/29 10:29:22;;;;;;;56.85;40.63;;;16.40;58.60;;;;;;4993613;28;20046;-74
2022/03/29 10:31:52;;;;;;;62.78;43.15;;;16.20;59.50;;;;;;5002263;28;20444;-73
2022/03/29 10:34:22;;;;;;;55.20;37.97;;;16.10;59.20;;;;;;4993734;28;20077;-73
2022/03/29 10:37:13;;;;;;;57.83;41.42;;;16.10;59.80;;;;;;4994559;28;20034;-74
2022/03/29 10:39:48;;;;;;;64.50;42.17;;;16.00;60.00;;;;;;4975302;28;20038;-74
2022/03/29 10:42:25;;;;;;;;;;;15.80;60.40;;;;;;4993288;28;20046;-74
2022/03/29 10:45:09;;;;;;;53.35;34.10;;;16.00;61.00;;;;;;4991520;28;20417;-74
2022/03/29 10:47:36;;;;;;;54.92;33.97;;;16.10;61.90;;;;;;4991677;28;20506;-74
2022/03/29 10:50:04;;;;;;;52.85;34.38;;;15.90;62.80;;;;;;4975164;28;20058;-74
2022/03/29 10:52:40;;;;;;;57.28;35.08;;;15.90;63.10;;;;;;4992153;28;20081;-74
2022/03/29 10:55:19;;;;;;;54.85;36.15;;;16.00;62.80;;;;;;4993985;28;20022;-73
2022/03/29 10:58:05;;;;;;;53.30;35.20;;;15.90;63.30;;;;;;4991995;28;20034;-74
2022/03/29 11:00:31;;;;;;;49.63;35.05;;;16.00;62.90;;;;;;4994655;28;20500;-74
2022/03/29 11:03:13;;;;;;;55.10;35.33;;;16.10;62.00;;;;;;4993942;28;21990;-74
2022/03/29 11:06:11;;;;;;;54.33;36.00;;;15.60;64.30;;;;;;4992146;28;20050;-74
2022/03/29 11:08:47;;;;;;;50.65;35.92;;;16.00;64.60;;;;;;4992412;28;20085;-77
2022/03/29 11:11:48;;;;;;;56.13;36.25;;;16.10;63.80;;;;;;5000780;28;20726;-76
2022/03/29 11:14:29;;;;;;;55.75;36.75;;;15.90;64.20;;;;;;4955887;28;20429;-76
2022/03/29 11:17:16;;;;;;;52.90;36.00;;;16.10;63.70;;;;;;5006230;28;20444;-75
2022/03/29 11:19:48;;;;;;;53.47;35.13;;;15.70;63.90;;;;;;5003546;28;20076;-76
2022/03/29 11:22:29;;;;;;;51.88;35.05;;;15.70;64.00;;;;;;5000751;28;20045;-75
2022/03/29 11:24:58;;;;;;;49.10;34.30;;;15.60;64.70;;;;;;4994620;28;20548;-75
2022/03/29 11:27:27;;;;;;;55.22;36.72;;;15.70;64.80;;;;;;4997936;28;20064;-75
2022/03/29 11:29:53;;;;;;;51.13;36.20;;;15.80;65.30;;;;;;4989280;28;20088;-75
2022/03/29 11:32:19;;;;;;;48.33;35.83;;;15.90;64.50;;;;;;5004944;28;20503;-74
2022/03/29 11:34:50;;;;;;;52.70;35.80;;;16.00;62.50;;;;;;5012142;28;20033;-78
2022/03/29 11:37:39;;;;;;;59.47;37.90;;;15.90;63.70;;;;;;4998499;28;20114;-75
2022/03/29 11:40:07;;;;;;;50.22;36.70;;;15.80;63.00;;;;;;4999090;28;20025;-76
2022/03/29 11:42:46;;;;;;;50.95;35.38;;;15.50;64.00;;;;;;4991897;28;20543;-77
2022/03/29 11:45:13;;;;;;;51.80;37.60;;;15.60;64.60;;;;;;4999067;28;20294;-77
2022/03/29 11:47:50;;;;;;;52.90;35.13;;;15.90;63.00;;;;;;4997146;28;20470;-76
2022/03/29 11:50:52;;;;;;;56.65;38.00;;;15.80;63.40;;;;;;5009013;28;20489;-76
2022/03/29 11:53:28;;;;;;;59.78;36.28;;;15.80;63.00;;;;;;4972923;28;20645;-77
2022/03/29 11:56:04;;;;;;;54.05;36.20;;;16.00;63.10;;;;;;4981488;28;20034;-78
2022/03/29 11:58:36;;;;;;;49.70;36.42;;;16.00;62.70;;;;;;4995634;28;20447;-75
2022/03/29 12:01:09;;;;;;;53.55;37.28;;;16.20;61.50;;;;;;5003889;28;20034;-75
2022/03/29 12:03:40;;;;;;;58.25;38.58;;;16.00;61.00;;;;;;4993452;28;20125;-74
2022/03/29 12:06:12;;;;;;;50.38;38.65;;;15.80;62.10;;;;;;4998229;28;20511;-75
2022/03/29 12:08:46;;;;;;;56.70;38.80;;;15.70;62.60;;;;;;5008873;28;20046;-75
2022/03/29 12:11:12;;;;;;;;;;;16.00;62.70;;;;;;5001981;28;20447;-76
2022/03/29 12:13:39;;;;;;;57.40;38.67;;;16.20;62.40;;;;;;5002235;28;20310;-76
2022/03/29 12:16:24;;;;;;;51.67;38.45;;;16.20;62.40;;;;;;5008540;28;20072;-78
2022/03/29 12:18:51;;;;;;;53.92;38.42;;;16.30;61.70;;;;;;5004291;28;20037;-79
2022/03/29 12:21:19;;;;;;;54.95;39.05;;;16.30;61.50;;;;;;5003144;28;20030;-79
2022/03/29 12:23:47;;;;;;;52.65;39.47;;;16.60;62.70;;;;;;4978019;28;20492;-77
2022/03/29 12:26:14;;;;;;;58.92;41.75;;;16.60;61.30;;;;;;4979710;28;20034;-78
2022/03/29 12:28:41;;;;;;;57.42;40.58;;;16.50;62.30;;;;;;4986297;28;20038;-79
2022/03/29 12:31:16;;;;;;;56.20;43.17;;;16.60;62.20;;;;;;5001092;28;20034;-79
2022/03/29 12:33:43;;;;;;;57.13;41.95;;;16.70;62.30;;;;;;4998560;28;20508;-79
2022/03/29 12:36:11;;;;;;;57.65;41.72;;;16.60;62.30;;;;;;4989008;28;20045;-78
2022/03/29 12:38:48;;;;;;;58.70;43.20;;;16.60;62.40;;;;;;4991004;28;20084;-78
2022/03/29 12:41:29;;;;;;;58.72;43.08;;;16.60;63.20;;;;;;4979350;28;20045;-80
2022/03/29 12:43:55;;;;;;;62.83;44.45;;;16.40;62.50;;;;;;4993220;28;20499;-78